Etusivu
METAR-TAF:

METAR-TAF

Lentoasemat :

Municipal

Tunica, Mississippi, Yhdysvallat

Leveyspiiri: 34-41-06N, Pituuspiiri: 090-20-52W, korkeus merenpinnasta: 59 m

Tämänhetkinen sää

Tämä raportti tehtiin 16 minuuttia sitten, kello 14.55 UTC
Tuuli 3 kn idästä/kaakosta
Lämpötila 15°C
Kosteus 72%
Ilmanpaine 1012 hPa
Näkyvyys: 16.1 km

METAR: KUTA 191455Z AUTO 12003KT 10SM 15/10 A2987 RMK AO2 TSNO

Aika: 10:11 (15:11 UTC)


TAF: puuttuu

Säähavainnot ja -ennusteet yli 4000 lentoasemalta (METAR- ja TAF-raportit).

Käytössä olevat sääasemat on merkitty karttaan keltaisilla ja punaisilla pisteillä.

Aseta hiiri pisteen päälle nähdäksesi sääaseman nimen.

Klikkaa sitten nähdäksesi säähavainnot ja -ennusteet.

Kartan vaihtaminen: klikkaa mustalla rastilla varustettuja vihreitä pisteitä, niin voit zoomata sisään; viivalla varustettua vihreää pistettä, niin voit zoomata ulos tai vihreitä nuolia, niin pääset viereisille kartoille.


METAR-TAF: